Flight Track Log - Related Links

Times and Time Zones

All times are in EDT time to prevent confusion due to time zone crossing. See the SKW6345 flight status page for this flight to view local times or setup timezone preferences in your user account.

Time Position Orientation Groundspeed Altitude Reporting Facility
EDT Latitude Longitude Course Direction KTS MPH feet Rate Location/Type
Fri 01:55:31 PM 45.7039 -111.1997 228° Southwest 239 275 7,800  Level Salt Lake Center
Fri 01:56:00 PM 45.7269 -111.5048 282° West  Level FlightAware Approximate
Fri 01:56:33 PM 45.7067 -111.2997 272° West 250 288 11,100  Level Salt Lake Center
Fri 01:57:00 PM 45.7371 -111.6503 288° West  Level FlightAware Approximate
Fri 01:57:35 PM 45.6739 -111.3928 243° Southwest 269 310 13,300  Level Salt Lake Center
Fri 01:58:00 PM 45.7669 -111.7843 288° West  Level FlightAware Approximate
Fri 01:58:37 PM 45.6333 -111.4914 240° Southwest 282 325 15,400  Level Salt Lake Center
Fri 01:59:00 PM 45.7967 -111.9184 288° West  Level FlightAware Approximate
Fri 01:59:39 PM 45.5867 -111.5997 238° Southwest 308 354 16,800  Level Salt Lake Center
Fri 02:00:41 PM 45.5364 -111.7169 239° Southwest 336 387 18,100 1,403 Climbing Salt Lake Center
Fri 02:01:43 PM 45.4736 -111.8283 231° Southwest 356 410 19,700 1,742 Climbing Salt Lake Center
Fri 02:02:45 PM 45.3908 -111.9553 227° Southwest 364 419 21,700 1,742 Climbing Salt Lake Center
Fri 02:03:47 PM 45.3219 -112.0600 227° Southwest 364 419 23,300 1,597 Climbing Salt Lake Center
Fri 02:04:49 PM 45.2539 -112.1611 226° Southwest 365 420 25,000 2,274 Climbing Salt Lake Center
Fri 02:05:51 PM 45.1847 -112.2631 226° Southwest 328 377 28,000 2,081 Climbing Salt Lake Center
Fri 02:06:53 PM 45.1328 -112.3431 227° Southwest 295 339 29,300 968 Climbing Salt Lake Center
Fri 02:07:55 PM 45.0700 -112.4353 226° Southwest 291 335 30,000 581 Climbing Salt Lake Center
Fri 02:08:57 PM 45.0144 -112.5194 227° Southwest 304 350 30,500 435 Climbing Salt Lake Center
Fri 02:09:59 PM 44.9453 -112.6200 226° Southwest 318 366 30,900 339 Climbing Salt Lake Center
Fri 02:11:01 PM 44.8864 -112.7081 227° Southwest 323 372 31,200 339 Climbing Salt Lake Center
Fri 02:12:03 PM 44.8136 -112.8139 226° Southwest 336 387 31,600 339 Climbing Salt Lake Center
Fri 02:13:05 PM 44.7519 -112.9056 227° Southwest 339 390 31,900 194 Climbing Salt Lake Center
Fri 02:14:07 PM 44.6783 -113.0147 227° Southwest 345 397 32,000 48 Climbing Salt Lake Center
Fri 02:15:09 PM 44.6203 -113.1183 232° Southwest 352 405 32,000  Level Salt Lake Center
Fri 02:16:12 PM 44.5594 -113.2250 231° Southwest 363 418 32,000  Level Salt Lake Center
Fri 02:17:14 PM 44.4881 -113.3494 231° Southwest 369 425 32,000  Level Salt Lake Center
Fri 02:18:16 PM 44.4278 -113.4567 232° Southwest 367 422 32,000  Level Salt Lake Center
Fri 02:19:18 PM 44.3536 -113.5822 230° Southwest 373 429 32,000  Level Salt Lake Center
Fri 02:20:20 PM 44.2919 -113.6872 231° Southwest 369 425 32,000  Level Salt Lake Center
Fri 02:21:22 PM 44.2211 -113.8092 231° Southwest 365 420 32,000  Level Salt Lake Center
Fri 02:22:24 PM 44.1617 -113.9136 232° Southwest 361 415 32,000  Level Salt Lake Center
Fri 02:23:26 PM 44.0939 -114.0358 232° Southwest 358 412 32,000  Level Salt Lake Center
Fri 02:24:28 PM 44.0342 -114.1375 231° Southwest 356 410 32,000  Level Salt Lake Center
Fri 02:25:30 PM 43.9600 -114.2594 230° Southwest 362 417 32,000  Level Salt Lake Center
Fri 02:26:32 PM 43.9000 -114.3619 231° Southwest 358 412 32,000  Level Salt Lake Center
Fri 02:27:34 PM 43.8319 -114.4794 231° Southwest 351 404 32,000  Level Salt Lake Center
Fri 02:28:36 PM 43.7703 -114.5811 230° Southwest 355 409 32,000  Level Salt Lake Center
Fri 02:29:38 PM 43.6994 -114.6978 230° Southwest 352 405 32,000  Level Salt Lake Center
Fri 02:30:40 PM 43.6392 -114.8008 231° Southwest 356 410 32,000  Level Salt Lake Center
Fri 02:31:42 PM 43.5786 -114.9028 231° Southwest 359 413 32,000  Level Salt Lake Center
Fri 02:32:44 PM 43.5078 -115.0203 230° Southwest 356 410 32,000  Level Salt Lake Center
Fri 02:33:46 PM 43.4464 -115.1219 230° Southwest 359 413 32,000  Level Salt Lake Center
Fri 02:34:48 PM 43.3742 -115.2411 230° Southwest 360 414 32,000  Level Salt Lake Center
Fri 02:35:50 PM 43.3117 -115.3433 230° Southwest 363 418 32,000  Level Salt Lake Center
Fri 02:36:52 PM 43.2383 -115.4625 230° Southwest 365 420 32,000  Level Salt Lake Center
Fri 02:37:54 PM 43.1761 -115.5642 230° Southwest 363 418 32,000  Level Salt Lake Center
Fri 02:38:56 PM 43.1025 -115.6836 230° Southwest 366 421 32,000  Level Salt Lake Center
Fri 02:39:58 PM 43.0389 -115.7844 229° Southwest 365 420 32,000  Level Salt Lake Center
Fri 02:41:00 PM 42.9756 -115.8883 230° Southwest 369 425 32,000  Level Salt Lake Center
Fri 02:42:02 PM 42.9017 -116.0072 230° Southwest 367 422 32,000  Level Salt Lake Center
Fri 02:43:04 PM 42.8369 -116.1092 229° Southwest 370 426 32,000  Level Salt Lake Center
Fri 02:44:06 PM 42.7619 -116.2289 230° Southwest 371 427 32,000  Level Salt Lake Center
Fri 02:45:08 PM 42.6975 -116.3308 229° Southwest 371 427 32,000  Level Salt Lake Center
Fri 02:46:10 PM 42.6219 -116.4503 229° Southwest 371 427 32,000  Level Salt Lake Center
Fri 02:47:12 PM 42.5564 -116.5525 229° Southwest 375 432 32,000  Level Salt Lake Center
Fri 02:48:14 PM 42.4803 -116.6725 229° Southwest 376 433 32,000  Level Salt Lake Center
Fri 02:49:16 PM 42.4147 -116.7747 229° Southwest 375 432 32,000  Level Salt Lake Center
Fri 02:50:18 PM 42.3372 -116.8967 229° Southwest 380 437 32,000  Level Salt Lake Center
Fri 02:51:20 PM 42.2811 -117.0092 236° Southwest 377 434 32,000  Level Salt Lake Center
Fri 02:52:22 PM 42.2247 -117.1472 241° Southwest 385 443 32,000  Level Salt Lake Center
Fri 02:53:24 PM 42.1758 -117.2675 241° Southwest 383 441 32,000  Level Salt Lake Center
Fri 02:54:26 PM 42.1186 -117.4072 241° Southwest 382 440 32,000  Level Salt Lake Center
Fri 02:55:28 PM 42.0697 -117.5281 241° Southwest 384 442 32,000  Level Salt Lake Center
Fri 02:56:30 PM 42.0214 -117.6497 242° Southwest 386 444 32,000  Level Salt Lake Center
Fri 02:57:32 PM 41.9642 -117.7917 242° Southwest 387 445 32,000  Level Salt Lake Center
Fri 02:58:34 PM 41.9158 -117.9128 242° Southwest 387 445 32,000  Level Salt Lake Center
Fri 02:59:36 PM 41.8578 -118.0544 241° Southwest 387 445 32,000  Level Salt Lake Center
Fri 03:00:38 PM 41.8089 -118.1758 242° Southwest 386 444 32,000  Level Salt Lake Center
Fri 03:01:40 PM 41.7531 -118.3203 243° Southwest 391 450 32,000  Level Salt Lake Center
Fri 03:02:42 PM 41.7036 -118.4450 242° Southwest 396 456 32,000  Level Salt Lake Center
Fri 03:03:44 PM 41.6469 -118.5878 242° Southwest 392 451 32,000  Level Salt Lake Center
Fri 03:04:46 PM 41.5767 -118.6919 228° Southwest 398 458 32,000  Level Salt Lake Center
Fri 03:05:48 PM 41.4894 -118.8069 225° Southwest 398 458 32,000  Level Salt Lake Center
Fri 03:06:50 PM 41.4133 -118.9042 224° Southwest 396 456 32,000  Level Salt Lake Center
Fri 03:07:52 PM 41.3242 -119.0172 224° Southwest 397 457 32,000  Level Salt Lake Center
Fri 03:08:54 PM 41.2481 -119.1128 223° Southwest 395 455 32,000  Level Salt Lake Center
Fri 03:10:28 PM 41.1219 -119.2736 224° Southwest 397 457 32,000  Level Oakland Center
Fri 03:10:59 PM 41.0819 -119.3231 223° Southwest 397 457 32,000  Level Salt Lake Center
Fri 03:12:00 PM 40.9969 -119.4297 223° Southwest 399 459 32,000  Level Salt Lake Center
Fri 03:12:31 PM 40.9553 -119.4833 224° Southwest 397 457 32,000  Level Oakland Center
Fri 03:13:32 PM 40.8781 -119.5794 223° Southwest 397 457 32,000  Level Oakland Center
Fri 03:14:34 PM 40.7869 -119.6903 223° Southwest 402 463 32,000  Level Oakland Center
Fri 03:15:35 PM 40.7067 -119.7897 223° Southwest 399 459 32,000  Level Oakland Center
Fri 03:16:37 PM 40.6261 -119.8892 223° Southwest 398 458 32,000  Level Oakland Center
Fri 03:17:38 PM 40.5447 -119.9908 224° Southwest 402 463 32,000  Level Oakland Center
Fri 03:18:40 PM 40.4617 -120.0925 223° Southwest 407 468 32,000  Level Oakland Center
Fri 03:19:41 PM 40.3811 -120.1900 223° Southwest 399 459 32,000  Level Oakland Center
Fri 03:20:43 PM 40.2983 -120.2903 223° Southwest 404 465 32,000  Level Oakland Center
Fri 03:21:44 PM 40.1986 -120.4122 223° Southwest 408 470 32,000  Level Oakland Center
Fri 03:22:46 PM 40.1147 -120.5125 222° Southwest 404 465 32,000  Level Oakland Center
Fri 03:23:47 PM 40.0322 -120.6125 223° Southwest 405 466 32,000  Level Oakland Center
Fri 03:24:49 PM 39.9450 -120.7161 222° Southwest 409 471 32,000  Level Oakland Center
Fri 03:25:50 PM 39.8622 -120.8164 223° Southwest 409 471 32,000  Level Oakland Center
Fri 03:26:52 PM 39.7783 -120.9158 222° Southwest 409 471 32,000  Level Oakland Center
Fri 03:27:53 PM 39.6950 -121.0150 222° Southwest 407 468 32,000  Level Oakland Center
Fri 03:28:55 PM 39.6122 -121.1128 222° Southwest 402 463 32,000  Level Oakland Center
Fri 03:29:56 PM 39.5300 -121.2092 222° Southwest 405 466 32,000  Level Oakland Center
Fri 03:30:58 PM 39.4436 -121.3081 221° Southwest 405 466 32,000  Level Oakland Center
Fri 03:31:59 PM 39.3444 -121.4258 223° Southwest 404 465 32,000  Level Oakland Center
Fri 03:33:01 PM 39.2611 -121.5242 222° Southwest 406 467 32,000  Level Oakland Center
Fri 03:34:02 PM 39.1767 -121.6214 222° Southwest 407 468 32,000  Level Oakland Center
Fri 03:35:04 PM 39.0931 -121.7192 222° Southwest 408 470 32,000  Level Oakland Center
Fri 03:36:05 PM 39.0089 -121.8164 222° Southwest 407 468 32,000  Level Oakland Center
Fri 03:37:07 PM 38.9247 -121.9128 222° Southwest 408 470 32,000  Level Oakland Center
Fri 03:38:08 PM 38.8317 -121.9958 215° Southwest 410 472 32,000 -341 Level Oakland Center
Fri 03:39:10 PM 38.7106 -122.0853 210° Southwest 418 481 31,300 -1,268 Descending Oakland Center
Fri 03:40:11 PM 38.6083 -122.1572 209° Southwest 421 484 29,400 -1,805 Descending Oakland Center
Fri 03:41:13 PM 38.5053 -122.2336 210° Southwest 427 491 27,600 -1,742 Descending Oakland Center
Fri 03:42:15 PM 38.4028 -122.3089 210° Southwest 426 490 25,800 -2,585 Descending Oakland Center
Fri 03:43:16 PM 38.3039 -122.3819 210° Southwest 416 479 22,300 -3,268 Descending Oakland Center
Fri 03:44:18 PM 38.2064 -122.4531 210° Southwest 408 470 19,100 -2,878 Descending Oakland Center
Fri 03:45:19 PM 38.1106 -122.5228 210° Southwest 398 458 16,400 -2,780 Descending Oakland Center
Fri 03:46:21 PM 38.0103 -122.5958 210° Southwest 357 411 13,400 -2,537 Descending Oakland Center
Fri 03:47:22 PM 37.9300 -122.6539 210° Southwest 349 402 11,200 -1,333 Descending Oakland Center
Fri 03:48:09 PM 37.8500 -122.6167 160° South 313 360 11,000 -112 Descending Northern Cal TRACON
Fri 03:49:09 PM 37.8000 -122.5667 142° Southeast 247 284 11,000  Level Northern Cal TRACON
Fri 03:50:09 PM 37.7500 -122.5000 133° Southeast 263 303 11,000  Level Northern Cal TRACON
Fri 03:51:09 PM 37.6833 -122.4500 149° Southeast 264 304 11,000  Level Northern Cal TRACON
Fri 03:52:09 PM 37.6333 -122.3833 133° Southeast 255 293 11,000  Level Northern Cal TRACON
Fri 03:52:30 PM 37.6197 -122.3753 155° Southeast 261 300 11,000 -500 Level Oakland Center
Fri 03:53:09 PM 37.5833 -122.3500 151° Southeast 248 285 10,500 -1,355 Descending Northern Cal TRACON
Fri 03:54:03 PM 37.5333 -122.3000 142° Southeast 244 281 8,900 -1,632 Descending Northern Cal TRACON
Fri 03:55:03 PM 37.4667 -122.2667 158° South 240 276 7,400 -1,333 Descending Northern Cal TRACON
Fri 03:56:09 PM 37.4500 -122.1833 104° East 195 224 6,100 -1,429 Descending Northern Cal TRACON
Fri 03:57:09 PM 37.4500 -122.1333 90° East 196 226 4,400 -1,105 Descending Northern Cal TRACON
Fri 03:58:03 PM 37.5000 -122.1333 360° North 162 186 4,000 -368 Descending Northern Cal TRACON
Fri 03:59:03 PM 37.5167 -122.1833 293° West 160 184 3,700 -700 Descending Northern Cal TRACON
Fri 04:00:03 PM 37.5500 -122.2167 322° Northwest 162 186 2,600 -1,100 Descending Northern Cal TRACON

Login

Don't have an account? Register now (free) for customized features, flight alerts, and more!